Time;durP1;ratioP1;P1;durP2;ratioP2;P2;SDS_P1;SDS_P2;PMS_P1;PMS_P2;Temp;Humidity;BMP_temperature;BMP_pressure;BME280_temperature;BME280_humidity;BME280_pressure;Samples;Min_cycle;Max_cycle;Signal;HPM_P1;HPM_P2
2021/12/23 00:01:42;;;;;;;42.17;17.90;;;-2.90;99.90;;;;;;5034000;28;20113;-63
2021/12/23 00:04:10;;;;;;;36.38;16.23;;;-2.80;99.90;;;;;;5033742;28;20390;-61
2021/12/23 00:06:36;;;;;;;40.83;19.17;;;-2.80;99.90;;;;;;5033899;28;20050;-61
2021/12/23 00:09:04;;;;;;;47.92;19.73;;;-2.70;99.90;;;;;;5033859;28;20022;-58
2021/12/23 00:11:30;;;;;;;41.58;19.63;;;-2.80;99.90;;;;;;5033659;28;20033;-59
2021/12/23 00:14:05;;;;;;;46.42;19.02;;;-3.00;99.90;;;;;;5033541;28;20118;-62
2021/12/23 00:16:43;;;;;;;39.42;18.02;;;-3.00;99.90;;;;;;5034327;28;20061;-63
2021/12/23 00:19:33;;;;;;;42.38;18.48;;;-3.10;99.90;;;;;;5035312;28;20041;-61
2021/12/23 00:24:43;;;;;;;38.80;17.30;;;-2.90;99.90;;;;;;5033716;28;20031;-60
2021/12/23 00:27:10;;;;;;;39.63;19.10;;;-2.80;99.90;;;;;;5033755;28;20021;-59
2021/12/23 00:29:36;;;;;;;40.63;17.77;;;-2.70;99.90;;;;;;5033800;28;20103;-62
2021/12/23 00:32:05;;;;;;;40.22;18.15;;;-2.80;99.90;;;;;;5033411;28;20423;-61
2021/12/23 00:34:31;;;;;;;41.53;18.95;;;-2.80;99.90;;;;;;5031959;28;20028;-59
2021/12/23 00:36:58;;;;;;;38.50;17.55;;;-2.90;99.90;;;;;;5033490;28;20532;-58
2021/12/23 00:39:25;;;;;;;38.40;17.65;;;-3.00;99.90;;;;;;5032825;28;20057;-63
2021/12/23 00:41:52;;;;;;;39.25;18.00;;;-3.00;99.90;;;;;;5033287;28;20030;-63
2021/12/23 00:44:18;;;;;;;;;;;-3.00;99.90;;;;;;5033794;28;20471;-61
2021/12/23 00:46:44;;;;;;;41.17;17.75;;;-2.80;99.90;;;;;;5033607;28;19923;-61
2021/12/23 00:49:09;;;;;;;36.97;16.23;;;-2.40;99.90;;;;;;5033188;28;20453;-58
2021/12/23 00:51:35;;;;;;;38.47;16.93;;;-2.50;99.90;;;;;;5033228;28;20479;-62
2021/12/23 00:54:04;;;;;;;36.40;16.90;;;-2.70;99.90;;;;;;5031859;28;20448;-61
2021/12/23 00:56:37;;;;;;;37.65;17.50;;;-2.80;99.90;;;;;;5033396;28;20033;-60
2021/12/23 00:59:07;;;;;;;34.63;15.20;;;-2.70;99.90;;;;;;5034079;28;20335;-61
2021/12/23 01:01:33;;;;;;;33.97;15.90;;;-2.60;99.90;;;;;;5034024;28;20037;-59
2021/12/23 01:03:58;;;;;;;36.90;16.90;;;-2.70;99.90;;;;;;5033298;28;20026;-61
2021/12/23 01:06:24;;;;;;;33.00;16.20;;;-2.90;99.90;;;;;;5033033;28;20358;-62
2021/12/23 01:08:50;;;;;;;39.95;16.38;;;-2.90;99.90;;;;;;5032880;28;20026;-61
2021/12/23 01:11:16;;;;;;;36.42;16.50;;;-3.00;99.90;;;;;;5033370;28;20029;-63
2021/12/23 01:13:48;;;;;;;36.67;15.90;;;-3.00;99.90;;;;;;5032932;28;20026;-60
2021/12/23 01:16:25;;;;;;;34.83;16.40;;;-3.10;99.90;;;;;;5032968;28;20026;-59
2021/12/23 01:18:54;;;;;;;37.95;16.38;;;-3.10;99.90;;;;;;5033905;28;20493;-61
2021/12/23 01:21:20;;;;;;;38.90;17.90;;;-3.00;99.90;;;;;;5034938;28;20029;-62
2021/12/23 01:23:52;;;;;;;36.17;17.48;;;-3.00;99.90;;;;;;5034648;28;20022;-63
2021/12/23 01:26:21;;;;;;;34.22;15.10;;;-3.00;99.90;;;;;;5033323;28;20053;-61
2021/12/23 01:28:56;;;;;;;37.05;16.73;;;-3.10;99.90;;;;;;5033154;28;20109;-62
2021/12/23 01:31:24;;;;;;;39.88;17.70;;;-3.10;99.90;;;;;;5034239;28;20083;-63
2021/12/23 01:33:50;;;;;;;35.88;16.83;;;-3.10;99.90;;;;;;5033762;28;20048;-59
2021/12/23 01:36:15;;;;;;;38.03;16.57;;;-3.10;99.90;;;;;;5033256;28;20029;-59
2021/12/23 01:38:41;;;;;;;34.47;16.30;;;-3.00;99.90;;;;;;5032618;28;20030;-63
2021/12/23 01:41:07;;;;;;;33.42;16.90;;;-3.00;99.90;;;;;;5033418;28;20107;-61
2021/12/23 01:43:33;;;;;;;35.90;16.77;;;-3.00;99.90;;;;;;5033349;28;20115;-61
2021/12/23 01:45:59;;;;;;;38.03;16.58;;;-3.00;99.90;;;;;;5032131;28;20032;-60
2021/12/23 01:48:24;;;;;;;34.90;16.57;;;-3.00;99.90;;;;;;5033683;28;20026;-62
2021/12/23 01:50:50;;;;;;;41.00;16.37;;;-2.90;99.90;;;;;;5035994;28;20087;-62
2021/12/23 01:53:16;;;;;;;37.17;16.73;;;-2.90;99.90;;;;;;5036917;28;20041;-61
2021/12/23 01:55:43;;;;;;;35.17;16.38;;;-2.90;99.90;;;;;;5036435;28;20292;-62
2021/12/23 01:58:09;;;;;;;;;;;-2.90;99.90;;;;;;5036974;28;20037;-61
2021/12/23 02:00:36;;;;;;;30.38;15.05;;;-2.90;99.90;;;;;;5035831;28;19909;-62
2021/12/23 02:03:03;;;;;;;33.50;15.27;;;-3.00;99.90;;;;;;5036430;28;20048;-61
2021/12/23 02:05:30;;;;;;;33.63;16.10;;;-3.00;99.90;;;;;;5036205;28;20040;-62
2021/12/23 02:07:57;;;;;;;33.78;15.80;;;-3.00;99.90;;;;;;5036111;28;20082;-61
2021/12/23 02:10:23;;;;;;;35.28;15.50;;;-3.00;99.90;;;;;;5034995;28;20036;-62
2021/12/23 02:12:49;;;;;;;32.53;14.93;;;-3.00;99.90;;;;;;5036981;28;20033;-61
2021/12/23 02:15:17;;;;;;;35.53;17.20;;;-3.00;99.90;;;;;;5036558;28;20029;-62
2021/12/23 02:17:43;;;;;;;34.45;16.70;;;-3.00;99.90;;;;;;5035115;28;20444;-62
2021/12/23 02:20:11;;;;;;;33.88;16.50;;;-3.00;99.90;;;;;;5035683;28;20088;-61
2021/12/23 02:22:38;;;;;;;35.92;16.40;;;-2.70;99.90;;;;;;5034949;28;20029;-60
2021/12/23 02:25:06;;;;;;;41.58;17.23;;;-2.70;99.90;;;;;;5036010;28;20022;-60
2021/12/23 02:27:32;;;;;;;36.60;16.73;;;-2.80;99.90;;;;;;5035697;28;20071;-61
2021/12/23 02:29:58;;;;;;;35.53;16.30;;;-2.90;99.90;;;;;;5036022;28;20037;-62
2021/12/23 02:32:23;;;;;;;36.28;17.77;;;-2.90;99.90;;;;;;5035982;28;20036;-61
2021/12/23 02:34:49;;;;;;;39.23;17.70;;;-2.90;99.90;;;;;;5036366;28;20033;-62
2021/12/23 02:37:15;;;;;;;34.33;15.73;;;-2.80;99.90;;;;;;5036409;28;20532;-62
2021/12/23 02:39:41;;;;;;;36.55;17.35;;;-2.70;99.90;;;;;;5036142;28;20026;-61
2021/12/23 02:42:08;;;;;;;42.55;18.02;;;-2.70;99.90;;;;;;5033995;28;20048;-61
2021/12/23 02:44:33;;;;;;;37.35;16.02;;;-2.60;99.90;;;;;;5035475;28;20021;-61
2021/12/23 02:46:59;;;;;;;34.87;16.60;;;-2.60;99.90;;;;;;5035696;28;20033;-61
2021/12/23 02:49:25;;;;;;;34.50;15.70;;;-2.60;99.90;;;;;;5035907;28;20033;-61
2021/12/23 02:51:51;;;;;;;35.13;16.63;;;-2.60;99.90;;;;;;5035483;28;20029;-61
2021/12/23 02:54:17;;;;;;;33.75;15.02;;;-2.60;99.90;;;;;;5035784;28;20064;-58
2021/12/23 02:56:43;;;;;;;36.80;15.23;;;-2.70;99.90;;;;;;5036129;28;20037;-61
2021/12/23 02:59:09;;;;;;;38.72;15.82;;;-2.60;99.90;;;;;;5038430;28;20076;-62
2021/12/23 03:01:35;;;;;;;40.13;16.52;;;-2.60;99.90;;;;;;5039566;28;20025;-62
2021/12/23 03:04:00;;;;;;;35.73;16.40;;;-2.70;99.90;;;;;;5036480;28;20144;-60
2021/12/23 03:06:26;;;;;;;41.63;17.43;;;-2.70;99.90;;;;;;5037278;28;20732;-62
2021/12/23 03:08:59;;;;;;;35.43;15.73;;;-2.70;99.90;;;;;;5037142;28;20021;-61
2021/12/23 03:11:26;;;;;;;39.08;15.95;;;-2.80;99.90;;;;;;5036568;28;20343;-62
2021/12/23 03:13:52;;;;;;;39.22;17.50;;;-2.80;99.90;;;;;;5036382;28;20104;-61
2021/12/23 03:16:23;;;;;;;59.83;26.10;;;-2.50;99.90;;;;;;5036715;28;20022;-61
2021/12/23 03:18:49;;;;;;;37.33;17.30;;;-2.50;99.90;;;;;;5036395;28;20037;-60
2021/12/23 03:21:15;;;;;;;44.28;20.48;;;-2.60;99.90;;;;;;5035010;28;20040;-62
2021/12/23 03:23:41;;;;;;;36.65;16.90;;;-2.70;99.90;;;;;;5034483;28;20100;-60
2021/12/23 03:26:07;;;;;;;37.92;17.75;;;-2.70;99.90;;;;;;5034429;28;20022;-61
2021/12/23 03:28:33;;;;;;;34.95;15.60;;;-2.80;99.90;;;;;;5034542;28;20037;-60
2021/12/23 03:30:59;;;;;;;37.85;17.40;;;-2.80;99.90;;;;;;5033451;28;20112;-61
2021/12/23 03:33:25;;;;;;;37.17;16.70;;;-2.80;99.90;;;;;;5034531;28;20042;-61
2021/12/23 03:35:51;;;;;;;32.65;16.77;;;-2.80;99.90;;;;;;5034606;28;20032;-60
2021/12/23 03:38:19;;;;;;;32.65;14.98;;;-2.80;99.90;;;;;;5033085;28;20092;-61
2021/12/23 03:40:45;;;;;;;34.55;15.68;;;-2.40;99.90;;;;;;5035215;28;20041;-60
2021/12/23 03:43:12;;;;;;;36.45;16.58;;;-2.10;99.90;;;;;;5034701;28;20501;-60
2021/12/23 03:45:38;;;;;;;38.28;16.25;;;-2.10;99.90;;;;;;5034189;28;20030;-61
2021/12/23 03:48:04;;;;;;;;;;;-2.20;99.90;;;;;;5035000;28;20459;-62
2021/12/23 03:50:30;;;;;;;38.13;15.73;;;-2.00;99.90;;;;;;5032635;28;19955;-60
2021/12/23 03:52:55;;;;;;;40.97;17.67;;;-1.90;99.90;;;;;;5047686;22;20092;-65
2021/12/23 03:55:21;;;;;;;33.07;16.17;;;-2.10;99.90;;;;;;5033936;28;20736;-63
2021/12/23 03:57:47;;;;;;;32.93;15.63;;;-2.20;99.90;;;;;;5034330;28;20256;-64
2021/12/23 04:00:16;;;;;;;33.83;16.75;;;-2.30;99.90;;;;;;5033819;28;20044;-62
2021/12/23 04:02:42;;;;;;;35.58;16.42;;;-1.90;99.90;;;;;;5033585;28;20029;-63
2021/12/23 04:05:08;;;;;;;31.95;16.15;;;-2.00;99.90;;;;;;5033526;28;20052;-64
2021/12/23 04:07:34;;;;;;;36.38;16.30;;;-2.20;99.90;;;;;;5033359;28;20026;-64
2021/12/23 04:10:01;;;;;;;34.55;15.93;;;-2.20;99.90;;;;;;5033516;28;20103;-64
2021/12/23 04:12:26;;;;;;;42.42;17.55;;;-2.30;99.90;;;;;;5033712;28;20052;-64
2021/12/23 04:14:52;;;;;;;40.60;17.23;;;-2.40;99.90;;;;;;5032984;28;20025;-63
2021/12/23 04:17:20;;;;;;;34.53;16.37;;;-2.40;99.90;;;;;;5033447;28;20494;-64
2021/12/23 04:19:47;;;;;;;35.33;16.38;;;-2.20;99.90;;;;;;5033247;28;20260;-66
2021/12/23 04:22:13;;;;;;;;;;;-2.20;99.90;;;;;;5034196;28;20402;-64
2021/12/23 04:24:38;;;;;;;38.35;15.35;;;-2.40;99.90;;;;;;5033772;28;19905;-64
2021/12/23 04:27:05;;;;;;;38.63;16.53;;;-2.50;99.90;;;;;;5033390;28;20083;-68
2021/12/23 04:29:31;;;;;;;;;;;-2.60;99.90;;;;;;5032696;28;20449;-68
2021/12/23 04:31:56;;;;;;;37.05;16.65;;;-2.60;99.90;;;;;;5031823;28;19905;-68
2021/12/23 04:34:22;;;;;;;33.93;15.33;;;-2.30;99.90;;;;;;5031944;28;20087;-68
2021/12/23 04:36:48;;;;;;;37.13;16.70;;;-2.10;99.90;;;;;;5033148;28;20029;-68
2021/12/23 04:39:13;;;;;;;37.70;16.50;;;-2.30;99.90;;;;;;5033156;28;20025;-70
2021/12/23 04:41:39;;;;;;;38.33;17.50;;;-2.30;99.90;;;;;;5033101;28;20079;-68
2021/12/23 04:44:06;;;;;;;36.77;16.47;;;-2.40;99.90;;;;;;5034680;28;20060;-68
2021/12/23 04:46:31;;;;;;;;;;;-2.40;99.90;;;;;;5033733;28;20041;-68
2021/12/23 04:48:57;;;;;;;36.00;15.18;;;-2.20;99.90;;;;;;5031917;28;19905;-67
2021/12/23 04:51:23;;;;;;;38.80;17.00;;;-1.90;99.90;;;;;;5033628;28;20100;-68
2021/12/23 04:53:48;;;;;;;36.70;17.03;;;-2.00;99.90;;;;;;5032217;28;20037;-68
2021/12/23 04:56:15;;;;;;;37.83;16.77;;;-2.20;99.90;;;;;;5033618;28;20256;-68
2021/12/23 04:58:42;;;;;;;34.72;15.82;;;-2.30;99.90;;;;;;5031881;28;20135;-67
2021/12/23 05:01:16;;;;;;;34.85;16.05;;;-2.40;99.90;;;;;;5031735;28;20117;-67
2021/12/23 05:03:42;;;;;;;41.22;16.27;;;-2.40;99.90;;;;;;5032993;28;20026;-67
2021/12/23 05:06:07;;;;;;;33.20;16.67;;;-2.40;99.90;;;;;;5033451;28;20021;-67
2021/12/23 05:08:33;;;;;;;36.10;16.50;;;-2.40;99.90;;;;;;5032829;28;20029;-68
2021/12/23 05:10:59;;;;;;;38.07;16.70;;;-2.40;99.90;;;;;;5033058;28;20057;-67
2021/12/23 05:13:24;;;;;;;36.63;16.07;;;-2.20;99.90;;;;;;5033226;28;20053;-68
2021/12/23 05:15:50;;;;;;;39.77;18.03;;;-2.30;99.90;;;;;;5032959;28;20079;-67
2021/12/23 05:18:16;;;;;;;36.30;16.63;;;-2.40;99.90;;;;;;5031525;28;20296;-68
2021/12/23 05:20:41;;;;;;;34.57;17.00;;;-2.40;99.90;;;;;;5031539;28;20078;-68
2021/12/23 05:23:07;;;;;;;32.67;16.70;;;-2.50;99.90;;;;;;5031478;28;20026;-68
2021/12/23 05:25:33;;;;;;;37.65;17.75;;;-2.50;99.90;;;;;;5034603;28;20024;-68
2021/12/23 05:28:00;;;;;;;36.53;15.90;;;-2.00;99.90;;;;;;5036528;28;20048;-68
2021/12/23 05:30:27;;;;;;;35.00;17.48;;;-1.80;99.90;;;;;;5036355;28;20260;-68
2021/12/23 05:32:53;;;;;;;36.08;15.85;;;-1.60;99.90;;;;;;5036357;28;20025;-68
2021/12/23 05:35:20;;;;;;;35.15;16.38;;;-1.70;99.90;;;;;;5036991;28;20039;-68
2021/12/23 05:37:46;;;;;;;38.42;17.60;;;-1.80;99.90;;;;;;5034820;28;20036;-68
2021/12/23 05:40:15;;;;;;;36.70;16.42;;;-2.00;99.90;;;;;;5036147;28;20071;-69
2021/12/23 05:42:42;;;;;;;31.23;15.05;;;-2.00;99.90;;;;;;5036176;28;20057;-68
2021/12/23 05:45:08;;;;;;;;;;;-1.90;99.90;;;;;;5036475;28;20053;-69
2021/12/23 05:47:34;;;;;;;36.10;15.52;;;-1.70;99.90;;;;;;5035345;28;20294;-69
2021/12/23 05:49:59;;;;;;;35.97;16.98;;;-1.80;99.90;;;;;;5036503;28;20029;-68
2021/12/23 05:52:25;;;;;;;36.40;16.13;;;-1.90;99.90;;;;;;5036399;28;20025;-68
2021/12/23 05:54:51;;;;;;;35.63;16.10;;;-2.00;99.90;;;;;;5036833;28;20404;-68
2021/12/23 05:57:17;;;;;;;36.03;17.42;;;-2.10;99.90;;;;;;5036938;28;20443;-67
2021/12/23 05:59:43;;;;;;;36.30;16.88;;;-1.90;99.90;;;;;;5036229;28;20029;-67
2021/12/23 06:02:09;;;;;;;33.60;16.05;;;-1.70;99.90;;;;;;5036305;28;20040;-68
2021/12/23 06:04:35;;;;;;;36.90;17.10;;;-1.80;99.90;;;;;;5036543;28;20371;-67
2021/12/23 06:07:02;;;;;;;;;;;-1.90;99.90;;;;;;5035561;28;20464;-68
2021/12/23 06:09:28;;;;;;;35.55;17.02;;;-2.00;99.90;;;;;;5036717;28;19937;-68
2021/12/23 06:11:53;;;;;;;35.20;16.13;;;-2.00;99.90;;;;;;5036171;28;20025;-68
2021/12/23 06:14:21;;;;;;;39.20;16.60;;;-1.70;99.90;;;;;;5035980;28;20095;-70
2021/12/23 06:16:46;;;;;;;34.75;17.00;;;-1.60;99.90;;;;;;5035991;28;20040;-69
2021/12/23 06:19:12;;;;;;;33.40;15.83;;;-1.30;99.90;;;;;;5035850;28;20537;-70
2021/12/23 06:21:38;;;;;;;31.70;15.17;;;-1.30;99.90;;;;;;5035666;28;20033;-69
2021/12/23 06:24:04;;;;;;;31.70;15.40;;;-1.30;99.90;;;;;;5035556;28;20028;-68
2021/12/23 06:26:31;;;;;;;34.47;15.77;;;-1.50;99.90;;;;;;5035525;28;20022;-69
2021/12/23 06:28:57;;;;;;;36.03;15.98;;;-1.70;99.90;;;;;;5035573;28;20382;-69
2021/12/23 06:31:23;;;;;;;35.65;15.77;;;-1.80;99.90;;;;;;5035379;28;20025;-69
2021/12/23 06:33:48;;;;;;;34.60;16.07;;;-1.80;99.90;;;;;;5035631;28;20030;-70
2021/12/23 06:36:14;;;;;;;34.90;16.90;;;-1.70;99.90;;;;;;5034754;28;20022;-69
2021/12/23 06:38:44;;;;;;;31.45;14.82;;;-1.70;99.90;;;;;;5035318;28;20025;-68
2021/12/23 06:41:11;;;;;;;35.53;15.73;;;-1.30;99.90;;;;;;5035253;28;20029;-69
2021/12/23 06:43:37;;;;;;;31.20;15.13;;;-1.30;99.90;;;;;;5035235;28;20036;-69
2021/12/23 06:46:03;;;;;;;36.28;16.23;;;-1.10;99.90;;;;;;5035259;28;20029;-69
2021/12/23 06:48:30;;;;;;;33.65;16.08;;;-1.20;99.90;;;;;;5035318;28;20092;-68
2021/12/23 06:50:57;;;;;;;39.45;15.85;;;-1.30;99.90;;;;;;5035432;28;20493;-69
2021/12/23 06:53:23;;;;;;;40.28;17.48;;;-1.30;99.90;;;;;;5033712;28;20091;-67
2021/12/23 06:55:52;;;;;;;38.60;17.17;;;-1.20;99.90;;;;;;5033710;28;20056;-68
2021/12/23 06:58:25;;;;;;;37.42;17.13;;;-1.20;99.90;;;;;;5034831;28;20473;-68
2021/12/23 07:00:52;;;;;;;39.90;16.88;;;-1.10;99.90;;;;;;5033199;28;20402;-68
2021/12/23 07:03:19;;;;;;;35.05;17.15;;;-1.00;99.90;;;;;;5034405;28;20026;-68
2021/12/23 07:05:44;;;;;;;32.40;14.65;;;-0.90;99.90;;;;;;5034697;28;20017;-68
2021/12/23 07:08:25;;;;;;;39.17;17.40;;;-1.10;99.90;;;;;;5034782;28;20021;-68
2021/12/23 07:10:51;;;;;;;37.97;16.10;;;-1.30;99.90;;;;;;5034447;28;20017;-68
2021/12/23 07:13:17;;;;;;;37.10;15.80;;;-1.40;99.90;;;;;;5034544;28;20028;-68
2021/12/23 07:15:43;;;;;;;35.13;16.50;;;-1.30;99.90;;;;;;5034656;28;20075;-69
2021/12/23 07:18:09;;;;;;;33.28;16.48;;;-1.20;99.90;;;;;;5034495;28;20033;-68
2021/12/23 07:20:34;;;;;;;37.33;17.88;;;-1.00;99.90;;;;;;5034795;28;20037;-69
2021/12/23 07:23:01;;;;;;;35.93;16.80;;;-1.10;99.90;;;;;;5034676;28;20546;-68
2021/12/23 07:25:27;;;;;;;40.22;16.77;;;-1.30;99.90;;;;;;5034296;28;20437;-69
2021/12/23 07:27:53;;;;;;;36.85;17.65;;;-1.40;99.90;;;;;;5034428;28;20173;-69
2021/12/23 07:30:21;;;;;;;32.93;15.43;;;-1.40;99.90;;;;;;5032645;28;20439;-69
2021/12/23 07:32:50;;;;;;;37.08;17.02;;;-1.30;99.90;;;;;;5034379;28;20642;-69
2021/12/23 07:35:17;;;;;;;37.05;16.60;;;-1.20;99.90;;;;;;5033847;28;20060;-69
2021/12/23 07:37:44;;;;;;;48.85;24.33;;;-1.30;99.90;;;;;;5034161;28;20026;-69
2021/12/23 07:40:14;;;;;;;36.50;16.60;;;-1.40;99.90;;;;;;5033895;28;20408;-69
2021/12/23 07:42:42;;;;;;;45.95;20.42;;;-1.30;99.90;;;;;;5032599;28;20397;-69
2021/12/23 07:45:08;;;;;;;46.67;21.83;;;-1.20;99.90;;;;;;5033885;28;20018;-68
2021/12/23 07:47:36;;;;;;;36.55;17.70;;;-1.20;99.90;;;;;;5033333;28;20032;-69
2021/12/23 07:50:03;;;;;;;38.85;17.70;;;-1.30;99.90;;;;;;5033563;28;20044;-69
2021/12/23 07:52:28;;;;;;;;;;;-1.30;99.90;;;;;;5033537;28;20079;-69
2021/12/23 07:54:54;;;;;;;35.55;16.38;;;-1.30;99.90;;;;;;5033290;28;19939;-68
2021/12/23 07:57:20;;;;;;;48.97;22.53;;;-1.10;99.90;;;;;;5031850;28;20030;-69
2021/12/23 07:59:45;;;;;;;63.20;29.53;;;-1.00;99.90;;;;;;5033690;28;20489;-68
2021/12/23 08:02:11;;;;;;;42.23;19.30;;;-1.10;99.90;;;;;;5031604;28;20549;-67
2021/12/23 08:04:37;;;;;;;40.60;18.50;;;-1.10;99.90;;;;;;5033168;28;20021;-70
2021/12/23 08:07:03;;;;;;;45.63;21.65;;;-1.10;99.90;;;;;;5033170;28;20017;-67
2021/12/23 08:09:30;;;;;;;37.97;17.20;;;-1.10;99.90;;;;;;5031844;28;20577;-69
2021/12/23 08:11:55;;;;;;;;;;;-1.10;99.90;;;;;;5033633;28;20028;-67
2021/12/23 08:14:21;;;;;;;36.85;15.60;;;-1.10;99.90;;;;;;5033028;28;19992;-67
2021/12/23 08:16:47;;;;;;;38.43;17.33;;;-0.80;99.90;;;;;;5033075;28;20041;-66
2021/12/23 08:19:13;;;;;;;36.67;16.63;;;-0.70;99.90;;;;;;5032979;28;20029;-68
2021/12/23 08:21:39;;;;;;;39.00;17.23;;;-0.70;99.90;;;;;;5033344;28;20091;-69
2021/12/23 08:24:05;;;;;;;34.55;17.20;;;-0.70;99.90;;;;;;5032943;28;20045;-68
2021/12/23 08:26:39;;;;;;;37.63;16.23;;;-0.60;99.90;;;;;;5033281;28;20474;-69
2021/12/23 08:29:06;;;;;;;34.05;16.50;;;-0.40;99.90;;;;;;5033492;28;20051;-70
2021/12/23 08:31:32;;;;;;;34.85;15.75;;;-0.50;99.90;;;;;;5032995;28;20133;-70
2021/12/23 08:33:57;;;;;;;37.53;16.30;;;-0.40;99.90;;;;;;5034232;28;20143;-68
2021/12/23 08:36:24;;;;;;;38.00;16.10;;;-0.40;99.90;;;;;;5033185;28;20018;-69
2021/12/23 08:38:49;;;;;;;30.38;15.35;;;-0.40;99.90;;;;;;5032625;28;20772;-68
2021/12/23 08:41:16;;;;;;;35.60;18.80;;;-0.30;99.90;;;;;;5032511;28;20052;-69
2021/12/23 08:43:41;;;;;;;31.40;15.57;;;-0.40;99.90;;;;;;5032470;28;20489;-68
2021/12/23 08:46:07;;;;;;;37.87;16.67;;;-0.30;99.90;;;;;;5032526;28;20060;-68
2021/12/23 08:48:32;;;;;;;36.53;16.93;;;-0.30;99.90;;;;;;5032393;28;20018;-67
2021/12/23 08:50:58;;;;;;;30.80;14.97;;;-0.30;99.90;;;;;;5032654;28;20463;-68
2021/12/23 08:53:24;;;;;;;40.20;18.87;;;-0.30;99.90;;;;;;5032356;28;20041;-69
2021/12/23 08:55:51;;;;;;;33.47;17.07;;;-0.30;99.90;;;;;;5031199;28;20097;-68
2021/12/23 08:58:16;;;;;;;38.83;19.05;;;-0.40;99.90;;;;;;5033104;28;20060;-69
2021/12/23 09:00:43;;;;;;;55.63;25.20;;;-0.30;99.90;;;;;;5034658;28;20061;-69
2021/12/23 09:03:09;;;;;;;40.15;19.55;;;-0.10;99.90;;;;;;5035154;28;20348;-68
2021/12/23 09:05:38;;;;;;;35.90;16.95;;;-0.10;99.90;;;;;;5036525;28;20029;-68
2021/12/23 09:08:05;;;;;;;37.15;15.70;;;-0.10;99.90;;;;;;5037109;28;20018;-69
2021/12/23 09:10:32;;;;;;;32.70;16.48;;;-0.20;99.90;;;;;;5036559;28;20033;-69
2021/12/23 09:12:57;;;;;;;34.70;15.40;;;-0.20;99.90;;;;;;5036564;28;20037;-68
2021/12/23 09:15:23;;;;;;;29.90;14.73;;;-0.10;99.90;;;;;;5036697;28;20025;-69
2021/12/23 09:17:49;;;;;;;30.98;16.95;;;-0.10;99.90;;;;;;5036424;28;20112;-68
2021/12/23 09:20:16;;;;;;;36.47;17.60;;;-0.30;99.90;;;;;;5036302;28;20437;-69
2021/12/23 09:22:42;;;;;;;32.00;15.52;;;-0.20;99.90;;;;;;5035836;28;20394;-68
2021/12/23 09:25:17;;;;;;;32.67;15.60;;;-0.20;99.90;;;;;;5035408;28;20029;-68
2021/12/23 09:27:57;;;;;;;35.42;16.67;;;-0.20;99.90;;;;;;5035115;28;20021;-68
2021/12/23 09:33:08;;;;;;;31.83;15.45;;;-0.10;99.90;;;;;;5036255;28;20041;-68
2021/12/23 09:35:34;;;;;;;31.42;16.95;;;-0.10;99.90;;;;;;5036480;28;20021;-64
2021/12/23 09:38:01;;;;;;;35.13;15.73;;;0.00;99.90;;;;;;5036433;28;20402;-66
2021/12/23 09:40:29;;;;;;;38.45;18.52;;;0.20;99.90;;;;;;5036864;28;20382;-66
2021/12/23 09:42:59;;;;;;;32.65;15.77;;;0.10;99.90;;;;;;5036735;28;20049;-69
2021/12/23 09:45:26;;;;;;;37.97;16.70;;;0.10;99.90;;;;;;5034956;28;20017;-69
2021/12/23 09:47:51;;;;;;;39.78;18.75;;;0.00;99.90;;;;;;5034974;28;20489;-70
2021/12/23 09:50:22;;;;;;;37.83;17.38;;;-0.10;99.90;;;;;;5035539;28;20037;-70
2021/12/23 09:52:53;;;;;;;41.80;18.73;;;-0.20;99.90;;;;;;5035549;28;20033;-69
2021/12/23 09:55:24;;;;;;;40.35;17.55;;;-0.30;99.90;;;;;;5037197;28;20030;-70
2021/12/23 09:57:53;;;;;;;36.63;17.83;;;-0.30;99.90;;;;;;5037231;28;20569;-70
2021/12/23 10:00:22;;;;;;;39.42;18.20;;;-0.30;99.90;;;;;;5036065;28;20510;-69
2021/12/23 10:02:49;;;;;;;38.83;18.33;;;-0.20;99.90;;;;;;5036139;28;20449;-71
2021/12/23 10:05:16;;;;;;;;;;;-0.20;99.90;;;;;;5036480;28;20018;-70
2021/12/23 10:07:45;;;;;;;43.47;18.95;;;-0.20;99.90;;;;;;5035941;28;20059;-69
2021/12/23 10:10:18;;;;;;;40.63;18.45;;;-0.20;99.90;;;;;;5035587;28;20026;-68
2021/12/23 10:37:20;;;;;;;46.80;20.98;;;0.70;99.90;;;;;;5034822;28;20479;-69
2021/12/23 10:39:51;;;;;;;46.67;21.23;;;0.70;99.90;;;;;;5034747;28;20034;-69
2021/12/23 10:42:19;;;;;;;53.53;22.85;;;0.60;99.90;;;;;;5034403;28;20025;-69
2021/12/23 10:44:50;;;;;;;46.40;22.17;;;0.60;99.90;;;;;;5034707;28;20018;-68
2021/12/23 10:47:49;;;;;;;50.78;22.25;;;0.60;99.90;;;;;;5034500;28;20512;-68
2021/12/23 10:53:08;;;;;;;45.00;21.67;;;0.60;99.90;;;;;;5034549;28;20033;-68
2021/12/23 10:58:19;;;;;;;47.20;21.67;;;0.50;99.90;;;;;;5034762;28;20035;-68
2021/12/23 11:01:01;;;;;;;45.85;22.00;;;0.50;99.90;;;;;;5034479;28;20029;-68
2021/12/23 11:06:10;;;;;;;44.88;21.73;;;0.50;99.90;;;;;;5034239;28;20024;-66
2021/12/23 11:11:45;;;;;;;53.75;24.95;;;0.70;99.90;;;;;;5034837;28;20501;-67
2021/12/23 11:32:10;;;;;;;42.28;19.95;;;1.10;99.90;;;;;;5034707;28;20034;-68
2021/12/23 11:39:48;;;;;;;46.90;21.80;;;1.30;99.90;;;;;;5034201;28;20049;-68
2021/12/23 11:42:28;;;;;;;49.97;21.65;;;1.40;99.90;;;;;;5033990;28;20040;-67
2021/12/23 11:44:53;;;;;;;49.35;21.65;;;1.40;99.90;;;;;;5032542;28;20068;-68
2021/12/23 11:47:20;;;;;;;42.47;19.83;;;1.40;99.90;;;;;;5033774;28;20017;-67
2021/12/23 11:49:47;;;;;;;;;;;1.40;99.90;;;;;;5034119;28;20018;-66
2021/12/23 11:52:14;;;;;;;42.45;20.08;;;1.40;99.90;;;;;;5033648;28;19909;-64
2021/12/23 11:54:42;;;;;;;49.55;22.13;;;1.50;99.90;;;;;;5033602;28;20056;-65
2021/12/23 11:57:14;;;;;;;48.22;23.55;;;1.60;99.90;;;;;;5033712;28;20029;-64
2021/12/23 11:59:42;;;;;;;47.25;21.30;;;1.60;99.90;;;;;;5033639;28;20028;-65
2021/12/23 12:02:20;;;;;;;47.30;21.30;;;1.70;99.90;;;;;;5033638;28;20028;-64
2021/12/23 12:04:48;;;;;;;46.25;21.70;;;1.80;99.90;;;;;;5033408;28;20067;-65
2021/12/23 12:07:17;;;;;;;43.30;21.33;;;1.90;99.90;;;;;;5034314;28;20104;-65
2021/12/23 12:09:58;;;;;;;51.00;21.85;;;2.10;99.90;;;;;;5034023;28;20025;-65
2021/12/23 12:12:24;;;;;;;48.22;22.00;;;2.30;99.90;;;;;;5037078;28;20052;-65
2021/12/23 12:14:54;;;;;;;48.33;21.83;;;2.40;99.90;;;;;;5036758;28;20040;-63
2021/12/23 12:17:25;;;;;;;50.10;22.20;;;2.50;99.90;;;;;;5034218;28;20021;-65
2021/12/23 12:20:01;;;;;;;46.15;21.05;;;2.40;99.90;;;;;;5035066;28;20022;-65
2021/12/23 12:23:02;;;;;;;49.45;20.55;;;2.50;99.90;;;;;;5033523;28;20122;-66
2021/12/23 12:25:31;;;;;;;47.60;23.08;;;2.50;99.90;;;;;;5019780;28;20455;-65
2021/12/23 12:27:56;;;;;;;49.55;23.17;;;2.40;99.90;;;;;;5033236;28;20028;-66
2021/12/23 12:30:35;;;;;;;50.90;22.90;;;2.50;99.90;;;;;;5033202;28;20029;-65
2021/12/23 12:33:24;;;;;;;49.17;22.67;;;2.50;99.90;;;;;;5033180;28;20037;-65
2021/12/23 12:36:01;;;;;;;48.72;22.55;;;2.50;99.90;;;;;;5027712;28;20044;-66
2021/12/23 12:38:32;;;;;;;50.58;23.23;;;2.50;99.90;;;;;;5034611;28;20103;-65
2021/12/23 12:41:04;;;;;;;45.88;22.48;;;2.50;99.90;;;;;;5033306;28;20021;-65
2021/12/23 12:43:40;;;;;;;48.33;22.17;;;2.60;99.90;;;;;;5032868;28;20025;-65
2021/12/23 12:46:07;;;;;;;47.60;21.60;;;2.60;99.90;;;;;;5032698;28;20383;-66
2021/12/23 12:48:59;;;;;;;46.45;20.45;;;2.60;99.90;;;;;;5032675;28;20025;-65
2021/12/23 12:51:33;;;;;;;43.80;21.00;;;2.70;99.90;;;;;;5028292;28;20038;-66
2021/12/23 12:54:09;;;;;;;44.58;20.25;;;2.80;99.90;;;;;;5032490;28;20441;-65
2021/12/23 12:56:37;;;;;;;43.05;20.85;;;2.80;99.90;;;;;;5032559;28;20501;-65
2021/12/23 12:59:07;;;;;;;43.20;20.35;;;2.80;99.90;;;;;;5032442;28;20034;-65
2021/12/23 13:01:37;;;;;;;45.30;20.67;;;2.90;99.90;;;;;;5032604;28;20105;-66
2021/12/23 13:04:05;;;;;;;44.78;21.70;;;3.00;99.90;;;;;;5032639;28;20095;-66
2021/12/23 13:06:39;;;;;;;43.45;21.05;;;2.90;99.90;;;;;;5032561;28;20017;-66
2021/12/23 13:09:07;;;;;;;48.22;21.52;;;2.90;99.90;;;;;;5032516;28;20029;-66
2021/12/23 13:11:35;;;;;;;52.00;22.90;;;3.00;99.90;;;;;;5032588;28;20462;-65
2021/12/23 13:14:01;;;;;;;45.08;22.10;;;3.00;99.90;;;;;;5032459;28;20036;-64
2021/12/23 13:16:28;;;;;;;42.83;21.50;;;3.10;99.90;;;;;;5032825;28;20025;-65
2021/12/23 13:19:18;;;;;;;45.22;22.27;;;3.20;99.90;;;;;;5032440;28;20514;-64
2021/12/23 13:21:49;;;;;;;51.25;26.40;;;3.20;99.90;;;;;;5032421;28;20029;-65
2021/12/23 13:24:19;;;;;;;41.00;20.05;;;3.20;99.90;;;;;;5032221;28;20482;-65
2021/12/23 13:26:45;;;;;;;46.83;22.67;;;3.30;99.90;;;;;;5032585;28;20419;-64
2021/12/23 13:29:12;;;;;;;42.25;20.45;;;3.30;99.90;;;;;;5032214;28;20066;-65
2021/12/23 13:31:40;;;;;;;49.05;23.33;;;3.30;99.90;;;;;;5032249;28;20026;-66
2021/12/23 13:34:12;;;;;;;46.28;22.70;;;3.30;99.90;;;;;;5035755;28;20052;-66
2021/12/23 13:36:45;;;;;;;39.38;21.17;;;3.30;99.90;;;;;;5038818;28;20099;-64
2021/12/23 13:39:17;;;;;;;47.22;22.85;;;3.20;99.90;;;;;;5032182;28;20052;-63
2021/12/23 13:41:53;;;;;;;47.35;22.38;;;3.30;99.90;;;;;;5031972;28;20073;-65